createdAt,value
2023-02-27T00:01:52.749Z,16.53
2023-02-27T00:04:58.279Z,16.61
2023-02-27T00:08:02.171Z,16.50
2023-02-27T00:11:07.612Z,16.43
2023-02-27T00:14:11.545Z,16.41
2023-02-27T00:17:15.367Z,16.51
2023-02-27T00:20:20.835Z,16.31
2023-02-27T00:23:24.978Z,16.24
2023-02-27T00:26:30.108Z,16.22
2023-02-27T00:29:33.928Z,15.98
2023-02-27T00:32:37.958Z,16.07
2023-02-27T00:35:41.627Z,16.29
2023-02-27T00:38:46.273Z,16.38
2023-02-27T00:41:51.368Z,15.62
2023-02-27T00:44:54.834Z,15.95
2023-02-27T00:47:58.434Z,15.90
2023-02-27T00:51:02.073Z,15.64
2023-02-27T00:54:05.794Z,15.66
2023-02-27T00:57:10.888Z,15.63
2023-02-27T01:00:15.274Z,16.07
2023-02-27T01:03:19.152Z,15.98
2023-02-27T01:06:23.504Z,16.00
2023-02-27T01:09:27.169Z,15.44
2023-02-27T01:12:32.345Z,15.87
2023-02-27T01:15:36.812Z,15.86
2023-02-27T01:18:40.946Z,15.43
2023-02-27T01:21:44.682Z,15.55
2023-02-27T01:24:51.095Z,15.69
2023-02-27T01:27:56.211Z,15.60
2023-02-27T01:30:59.888Z,15.59
2023-02-27T01:34:03.705Z,15.83
2023-02-27T01:37:08.778Z,15.80
2023-02-27T01:40:13.727Z,15.91
2023-02-27T01:43:21.715Z,16.09
2023-02-27T01:46:25.938Z,15.82
2023-02-27T01:49:34.078Z,15.41
2023-02-27T01:52:42.630Z,15.55
2023-02-27T01:55:48.151Z,15.80
2023-02-27T01:58:56.072Z,15.82
2023-02-27T02:02:03.299Z,15.64
2023-02-27T02:05:09.097Z,15.24
2023-02-27T02:08:15.476Z,15.53
2023-02-27T02:11:21.596Z,15.68
2023-02-27T02:14:27.918Z,15.79
2023-02-27T02:17:40.565Z,15.82
2023-02-27T02:21:40.584Z,15.70
2023-02-27T02:25:25.490Z,15.77
2023-02-27T02:28:57.090Z,15.77
2023-02-27T02:32:57.231Z,15.76
2023-02-27T02:36:52.689Z,15.10
2023-02-27T02:40:20.257Z,14.97
2023-02-27T02:43:29.771Z,15.20
2023-02-27T02:46:39.920Z,15.22
2023-02-27T02:49:51.101Z,15.44
2023-02-27T02:53:06.208Z,15.48
2023-02-27T02:56:19.346Z,15.44
2023-02-27T02:59:30.548Z,15.57
2023-02-27T03:02:39.075Z,15.62
2023-02-27T03:05:48.474Z,15.58
2023-02-27T03:08:57.250Z,15.79
2023-02-27T03:12:04.408Z,15.83
2023-02-27T03:15:14.072Z,15.47
2023-02-27T03:18:24.884Z,15.14
2023-02-27T03:21:33.753Z,15.13
2023-02-27T03:24:41.239Z,15.30
2023-02-27T03:27:50.236Z,15.55
2023-02-27T03:31:02.078Z,15.25
2023-02-27T03:34:14.651Z,15.66
2023-02-27T03:37:28.971Z,15.73
2023-02-27T03:40:37.157Z,15.56
2023-02-27T03:43:52.843Z,15.35
2023-02-27T03:47:01.088Z,15.55
2023-02-27T03:50:05.714Z,15.60
2023-02-27T03:53:18.620Z,15.73
2023-02-27T03:56:27.126Z,15.61
2023-02-27T03:59:33.832Z,15.44
2023-02-27T04:02:38.328Z,15.17
2023-02-27T04:05:42.495Z,15.53
2023-02-27T04:08:58.367Z,15.62
2023-02-27T04:12:19.881Z,15.28
2023-02-27T04:15:34.336Z,15.21
2023-02-27T04:18:55.705Z,15.37
2023-02-27T04:22:12.621Z,15.37
2023-02-27T04:25:33.552Z,15.32
2023-02-27T04:28:46.659Z,15.27
2023-02-27T04:31:58.825Z,15.39
2023-02-27T04:35:08.490Z,15.55
2023-02-27T04:38:19.092Z,15.67
2023-02-27T04:41:26.714Z,15.70
2023-02-27T04:44:34.724Z,15.34
2023-02-27T04:47:46.309Z,15.46
2023-02-27T04:50:55.574Z,15.31
2023-02-27T04:54:03.499Z,15.24
2023-02-27T04:57:12.323Z,15.10
2023-02-27T05:00:18.378Z,15.15
2023-02-27T05:03:28.226Z,15.04
2023-02-27T05:06:35.579Z,14.99
2023-02-27T05:09:45.128Z,14.90
2023-02-27T05:12:53.786Z,14.64
2023-02-27T05:16:05.459Z,14.28
2023-02-27T05:19:11.636Z,14.22
2023-02-27T05:22:28.313Z,14.07
2023-02-27T05:25:38.947Z,13.97
2023-02-27T05:28:53.185Z,13.90
2023-02-27T05:32:06.018Z,13.91
2023-02-27T05:35:18.593Z,13.62
2023-02-27T05:38:27.968Z,13.83
2023-02-27T05:41:34.931Z,13.90
2023-02-27T05:44:43.777Z,13.79
2023-02-27T05:47:53.855Z,13.79
2023-02-27T05:51:00.564Z,14.02
2023-02-27T05:54:11.817Z,14.31
2023-02-27T05:57:22.752Z,14.37
2023-02-27T06:00:35.097Z,14.58
2023-02-27T06:03:41.176Z,14.71
2023-02-27T06:06:46.636Z,14.79
2023-02-27T06:09:51.958Z,15.00
2023-02-27T06:12:55.818Z,15.22
2023-02-27T06:15:59.807Z,15.25
2023-02-27T06:19:05.044Z,15.27
2023-02-27T06:22:11.198Z,15.25
2023-02-27T06:25:15.074Z,15.37
2023-02-27T06:28:19.189Z,15.54
2023-02-27T06:31:23.165Z,15.38
2023-02-27T06:34:27.262Z,15.14
2023-02-27T06:37:32.446Z,15.32
2023-02-27T06:40:36.420Z,15.69
2023-02-27T06:43:40.250Z,15.90
2023-02-27T06:46:44.306Z,16.16
2023-02-27T06:49:48.293Z,16.11
2023-02-27T06:52:53.594Z,16.10
2023-02-27T06:55:57.825Z,16.09
2023-02-27T06:59:01.688Z,16.33
2023-02-27T07:02:05.485Z,16.41
2023-02-27T07:05:11.472Z,17.03
2023-02-27T07:08:18.020Z,16.98
2023-02-27T07:11:21.894Z,17.03
2023-02-27T07:14:25.912Z,17.12
2023-02-27T07:17:29.702Z,17.15
2023-02-27T07:20:33.515Z,17.63
2023-02-27T07:23:39.100Z,17.87
2023-02-27T07:26:43.213Z,17.91
2023-02-27T07:29:46.993Z,17.99
2023-02-27T07:32:50.948Z,18.19
2023-02-27T07:35:54.989Z,17.84
2023-02-27T07:39:00.470Z,18.04
2023-02-27T07:42:04.260Z,18.18
2023-02-27T07:45:11.337Z,17.88
2023-02-27T07:48:15.165Z,17.80
2023-02-27T07:51:19.105Z,18.24
2023-02-27T07:54:24.577Z,17.97
2023-02-27T07:57:28.395Z,18.05
2023-02-27T08:00:32.649Z,17.24
2023-02-27T08:03:36.461Z,17.32
2023-02-27T08:06:40.209Z,17.23
2023-02-27T08:09:45.555Z,17.59
2023-02-27T08:12:49.446Z,17.99
2023-02-27T08:15:54.467Z,17.97
2023-02-27T08:18:58.383Z,18.10
2023-02-27T08:22:02.132Z,17.94
2023-02-27T08:25:11.355Z,18.25
2023-02-27T08:28:15.645Z,17.99
2023-02-27T08:31:19.563Z,18.21
2023-02-27T08:34:23.307Z,18.14
2023-02-27T08:37:27.504Z,18.57
2023-02-27T08:40:32.746Z,18.79
2023-02-27T08:43:36.515Z,18.89
2023-02-27T08:46:40.370Z,19.04
2023-02-27T08:49:44.205Z,19.12
2023-02-27T08:52:47.893Z,19.10
2023-02-27T08:55:53.897Z,19.30
2023-02-27T08:58:58.043Z,19.52
2023-02-27T09:02:01.883Z,19.72
2023-02-27T09:05:06.121Z,19.65
2023-02-27T09:08:09.969Z,19.97
2023-02-27T09:11:15.313Z,20.30
2023-02-27T09:14:19.179Z,20.40
2023-02-27T09:17:23.138Z,20.25
2023-02-27T09:20:26.926Z,20.44
2023-02-27T09:23:30.788Z,20.48
2023-02-27T09:26:45.219Z,20.32
2023-02-27T09:29:55.610Z,20.64
2023-02-27T09:32:59.425Z,20.60
2023-02-27T09:36:03.278Z,20.53
2023-02-27T09:39:09.933Z,20.10
2023-02-27T09:42:20.671Z,20.52
2023-02-27T09:45:26.566Z,20.51
2023-02-27T09:48:33.931Z,20.17
2023-02-27T09:51:37.732Z,20.86
2023-02-27T09:54:44.313Z,21.27
2023-02-27T09:57:56.664Z,21.23
2023-02-27T10:01:06.526Z,21.24
2023-02-27T10:04:29.473Z,21.17
2023-02-27T10:07:40.162Z,21.27
2023-02-27T10:10:51.188Z,21.40
2023-02-27T10:14:04.567Z,21.64
2023-02-27T10:17:17.587Z,21.74
2023-02-27T10:20:27.278Z,21.53
2023-02-27T10:23:37.882Z,21.60
2023-02-27T10:26:44.418Z,21.68
2023-02-27T10:29:50.364Z,21.90
2023-02-27T10:32:59.549Z,21.87
2023-02-27T10:36:04.498Z,22.15
2023-02-27T10:39:12.122Z,21.96
2023-02-27T10:42:18.419Z,21.96
2023-02-27T10:45:23.736Z,22.04
2023-02-27T10:48:27.573Z,22.11
2023-02-27T10:51:35.176Z,22.36
2023-02-27T10:54:39.357Z,22.59
2023-02-27T10:57:44.563Z,22.65
2023-02-27T11:00:56.448Z,22.86
2023-02-27T11:04:00.472Z,23.02
2023-02-27T11:07:07.309Z,23.44
2023-02-27T11:10:20.093Z,23.51
2023-02-27T11:13:26.372Z,23.06
2023-02-27T11:16:47.678Z,23.13
2023-02-27T11:19:51.621Z,22.61
2023-02-27T11:23:04.936Z,22.30
2023-02-27T11:26:17.243Z,22.72
2023-02-27T11:29:22.537Z,22.52
2023-02-27T11:32:31.773Z,23.04
2023-02-27T11:35:38.730Z,22.89
2023-02-27T11:38:42.641Z,22.98
2023-02-27T11:41:46.449Z,22.54
2023-02-27T11:44:56.503Z,22.75
2023-02-27T11:48:09.504Z,22.67
2023-02-27T11:51:26.617Z,22.97
2023-02-27T11:54:38.247Z,23.17
2023-02-27T11:57:46.475Z,22.60
2023-02-27T12:00:53.999Z,22.24
2023-02-27T12:04:04.640Z,22.65
2023-02-27T12:07:18.256Z,23.01
2023-02-27T12:10:24.069Z,23.23
2023-02-27T12:13:32.118Z,23.06
2023-02-27T12:16:42.511Z,22.60
2023-02-27T12:20:10.055Z,22.30
2023-02-27T12:23:22.102Z,21.98
2023-02-27T12:26:31.272Z,22.40
2023-02-27T12:29:39.792Z,22.55
2023-02-27T12:32:49.162Z,22.10
2023-02-27T12:35:59.695Z,22.32
2023-02-27T12:39:04.682Z,21.85
2023-02-27T12:42:33.845Z,22.05
2023-02-27T12:46:01.024Z,22.14
2023-02-27T12:49:17.519Z,22.16
2023-02-27T12:52:31.319Z,21.74
2023-02-27T12:55:41.643Z,21.89
2023-02-27T12:58:56.040Z,21.77
2023-02-27T13:02:17.691Z,21.65
2023-02-27T13:05:53.641Z,21.45
2023-02-27T13:09:13.256Z,21.43
2023-02-27T13:12:30.966Z,21.26
2023-02-27T13:15:42.806Z,20.94
2023-02-27T13:18:52.729Z,21.11
2023-02-27T13:21:59.399Z,21.12
2023-02-27T13:25:12.455Z,20.84
2023-02-27T13:28:21.096Z,21.02
2023-02-27T13:31:34.322Z,21.24
2023-02-27T13:34:43.156Z,21.33
2023-02-27T13:37:55.424Z,21.54
2023-02-27T13:41:40.037Z,21.40
2023-02-27T13:44:43.810Z,21.67
2023-02-27T13:47:51.217Z,21.55
2023-02-27T13:50:55.041Z,21.36
2023-02-27T13:54:16.634Z,21.34
2023-02-27T13:57:29.397Z,21.38
2023-02-27T14:00:35.244Z,21.45
2023-02-27T14:03:41.750Z,21.50
2023-02-27T14:06:47.695Z,21.41
2023-02-27T14:09:54.498Z,21.47
2023-02-27T14:13:00.989Z,21.51
2023-02-27T14:16:04.941Z,21.59
2023-02-27T14:19:50.838Z,21.45
2023-02-27T14:23:20.760Z,21.17
2023-02-27T14:26:26.783Z,21.17
2023-02-27T14:29:35.084Z,21.15
2023-02-27T14:32:40.127Z,21.22
2023-02-27T14:35:47.834Z,21.29
2023-02-27T14:38:54.539Z,21.30
2023-02-27T14:42:18.154Z,21.29
2023-02-27T14:45:25.342Z,21.36
2023-02-27T14:48:30.275Z,21.33
2023-02-27T14:51:36.184Z,21.27
2023-02-27T14:54:40.067Z,21.12
2023-02-27T14:57:55.475Z,20.91
2023-02-27T15:01:04.802Z,20.74
2023-02-27T15:04:09.031Z,20.59
2023-02-27T15:07:24.845Z,20.69
2023-02-27T15:10:33.564Z,20.36
2023-02-27T15:13:40.780Z,20.50
2023-02-27T15:16:46.139Z,20.40
2023-02-27T15:19:52.706Z,20.11
2023-02-27T15:22:56.911Z,20.31
2023-02-27T15:26:01.999Z,20.19
2023-02-27T15:29:07.850Z,20.15
2023-02-27T15:32:20.873Z,20.07
2023-02-27T15:35:27.109Z,20.06
2023-02-27T15:38:32.613Z,19.99
2023-02-27T15:41:37.200Z,19.93
2023-02-27T15:44:44.450Z,20.01
2023-02-27T15:47:50.349Z,19.96
2023-02-27T15:50:56.070Z,19.92
2023-02-27T15:54:01.912Z,19.79
2023-02-27T15:57:07.905Z,19.85
2023-02-27T16:00:15.546Z,19.89
2023-02-27T16:03:25.281Z,19.83
2023-02-27T16:06:32.635Z,19.83
2023-02-27T16:09:38.795Z,19.89
2023-02-27T16:12:43.182Z,19.90
2023-02-27T16:15:46.994Z,19.93
2023-02-27T16:18:53.711Z,19.94
2023-02-27T16:22:14.169Z,19.75
2023-02-27T16:25:20.650Z,19.77
2023-02-27T16:28:24.452Z,19.75
2023-02-27T16:31:31.768Z,19.76
2023-02-27T16:34:47.604Z,19.45
2023-02-27T16:37:53.784Z,19.17
2023-02-27T16:40:57.674Z,19.26
2023-02-27T16:44:01.536Z,19.14
2023-02-27T16:47:05.404Z,19.05
2023-02-27T16:50:18.151Z,18.93
2023-02-27T16:53:21.824Z,18.96
2023-02-27T16:56:37.822Z,18.75
2023-02-27T16:59:44.301Z,18.57
2023-02-27T17:02:48.508Z,18.26
2023-02-27T17:05:55.453Z,18.26
2023-02-27T17:08:59.262Z,18.27
2023-02-27T17:12:03.151Z,18.08
2023-02-27T17:15:08.063Z,18.23
2023-02-27T17:18:11.845Z,18.09
2023-02-27T17:21:17.039Z,18.08
2023-02-27T17:24:20.804Z,18.21
2023-02-27T17:27:24.634Z,18.28
2023-02-27T17:30:28.550Z,18.26
2023-02-27T17:33:33.391Z,18.28
2023-02-27T17:36:39.605Z,18.27
2023-02-27T17:39:43.532Z,18.32
2023-02-27T17:42:47.270Z,18.31
2023-02-27T17:45:50.972Z,18.30
2023-02-27T17:48:56.442Z,18.34
2023-02-27T17:52:01.607Z,18.32
2023-02-27T17:55:06.162Z,18.36
2023-02-27T17:58:10.096Z,18.31
2023-02-27T18:01:17.242Z,18.33
2023-02-27T18:04:21.006Z,17.99
2023-02-27T18:07:26.410Z,17.96
2023-02-27T18:10:30.173Z,18.02
2023-02-27T18:13:33.911Z,18.03
2023-02-27T18:16:37.728Z,17.99
2023-02-27T18:19:41.939Z,17.71
2023-02-27T18:22:47.224Z,17.63
2023-02-27T18:25:55.626Z,17.74
2023-02-27T18:29:00.620Z,17.80
2023-02-27T18:32:04.787Z,17.62
2023-02-27T18:35:09.497Z,17.43
2023-02-27T18:38:14.745Z,17.45
2023-02-27T18:41:18.759Z,17.12
2023-02-27T18:44:22.566Z,16.99
2023-02-27T18:47:30.285Z,16.99
2023-02-27T18:50:34.675Z,17.13
2023-02-27T18:53:40.454Z,16.63
2023-02-27T18:56:44.313Z,16.33
2023-02-27T18:59:48.241Z,16.80
2023-02-27T19:02:52.213Z,16.95
2023-02-27T19:05:56.035Z,17.10
2023-02-27T19:09:01.453Z,17.39
2023-02-27T19:12:05.829Z,17.48
2023-02-27T19:15:12.202Z,17.44
2023-02-27T19:18:15.976Z,17.43
2023-02-27T19:21:20.385Z,17.49
2023-02-27T19:24:25.628Z,17.52
2023-02-27T19:27:29.545Z,17.11
2023-02-27T19:30:33.389Z,17.32
2023-02-27T19:33:37.617Z,17.43
2023-02-27T19:36:41.785Z,16.96
2023-02-27T19:39:47.095Z,16.81
2023-02-27T19:42:51.064Z,17.10
2023-02-27T19:45:54.806Z,16.66
2023-02-27T19:49:00.600Z,16.85
2023-02-27T19:52:04.575Z,16.81
2023-02-27T19:55:10.700Z,16.48
2023-02-27T19:58:14.452Z,16.59
2023-02-27T20:01:24.567Z,16.48
2023-02-27T20:04:28.690Z,16.08
2023-02-27T20:07:32.576Z,16.22
2023-02-27T20:10:37.893Z,15.90
2023-02-27T20:13:41.827Z,15.93
2023-02-27T20:16:45.797Z,15.67
2023-02-27T20:19:49.632Z,15.24
2023-02-27T20:22:53.721Z,15.33
2023-02-27T20:25:59.159Z,14.94
2023-02-27T20:29:05.521Z,15.33
2023-02-27T20:32:10.137Z,15.21
2023-02-27T20:35:14.534Z,14.59
2023-02-27T20:38:20.219Z,14.80
2023-02-27T20:41:29.361Z,15.13
2023-02-27T20:44:33.653Z,14.94
2023-02-27T20:47:37.424Z,15.21
2023-02-27T20:50:41.276Z,15.14
2023-02-27T20:53:47.595Z,15.28
2023-02-27T20:56:54.721Z,15.05
2023-02-27T20:59:58.587Z,15.12
2023-02-27T21:03:03.727Z,15.06
2023-02-27T21:06:08.747Z,14.73
2023-02-27T21:09:12.566Z,14.95
2023-02-27T21:12:18.400Z,15.00
2023-02-27T21:15:22.111Z,14.75
2023-02-27T21:18:25.917Z,14.84
2023-02-27T21:21:32.403Z,14.93
2023-02-27T21:24:36.197Z,15.03
2023-02-27T21:27:41.337Z,15.16
2023-02-27T21:30:45.206Z,14.98
2023-02-27T21:33:49.745Z,14.92
2023-02-27T21:36:54.426Z,14.64
2023-02-27T21:39:58.284Z,14.87
2023-02-27T21:43:03.651Z,15.03
2023-02-27T21:46:08.148Z,14.96
2023-02-27T21:49:17.641Z,14.78
2023-02-27T21:52:21.954Z,14.87
2023-02-27T21:55:25.716Z,14.53
2023-02-27T21:58:31.014Z,14.68
2023-02-27T22:01:35.469Z,14.66
2023-02-27T22:04:39.342Z,14.52
2023-02-27T22:07:43.189Z,14.12
2023-02-27T22:10:47.271Z,14.27
2023-02-27T22:13:52.440Z,14.55
2023-02-27T22:16:56.214Z,14.36
2023-02-27T22:20:00.065Z,14.00
2023-02-27T22:23:05.024Z,14.39
2023-02-27T22:26:10.299Z,14.55
2023-02-27T22:29:15.761Z,14.54
2023-02-27T22:32:19.989Z,14.51
2023-02-27T22:35:24.795Z,14.52
2023-02-27T22:38:28.591Z,13.91
2023-02-27T22:41:34.520Z,13.85
2023-02-27T22:44:39.752Z,14.10
2023-02-27T22:47:43.526Z,14.36
2023-02-27T22:50:47.363Z,14.15
2023-02-27T22:53:51.255Z,13.63
2023-02-27T22:56:57.923Z,14.17
2023-02-27T23:00:06.072Z,14.15
2023-02-27T23:03:09.813Z,14.23
2023-02-27T23:06:15.812Z,14.04
2023-02-27T23:09:21.965Z,14.00
2023-02-27T23:12:27.415Z,13.77
2023-02-27T23:15:33.154Z,13.80
2023-02-27T23:18:36.775Z,14.08
2023-02-27T23:21:40.493Z,14.25
2023-02-27T23:24:44.306Z,14.16
2023-02-27T23:27:48.170Z,14.23
2023-02-27T23:30:53.398Z,14.24
2023-02-27T23:33:57.585Z,14.36
2023-02-27T23:37:01.653Z,13.86
2023-02-27T23:40:06.911Z,14.15
2023-02-27T23:43:28.117Z,14.14
2023-02-27T23:46:33.596Z,13.93
2023-02-27T23:49:37.445Z,13.69
2023-02-27T23:52:41.256Z,13.95
2023-02-27T23:55:45.185Z,13.78
2023-02-27T23:58:50.051Z,13.86
